Time;durP1;ratioP1;P1;durP2;ratioP2;P2;SDS_P1;SDS_P2;PMS_P1;PMS_P2;Temp;Humidity;BMP_temperature;BMP_pressure;BME280_temperature;BME280_humidity;BME280_pressure;Samples;Min_cycle;Max_cycle;Signal;HPM_P1;HPM_P2
2023/03/22 00:00:51;;;;;;;57.03;23.27;;;9.20;99.90;;;;;;5017067;28;20033;-68
2023/03/22 00:03:17;;;;;;;61.35;22.98;;;9.30;99.90;;;;;;5017196;28;20030;-68
2023/03/22 00:05:43;;;;;;;56.83;24.60;;;9.30;99.90;;;;;;5017829;28;20040;-69
2023/03/22 00:08:09;;;;;;;56.50;24.65;;;9.40;99.90;;;;;;5017846;28;20041;-68
2023/03/22 00:10:36;;;;;;;55.10;24.23;;;9.40;99.90;;;;;;5016843;28;20037;-68
2023/03/22 00:13:04;;;;;;;56.30;23.90;;;9.30;99.90;;;;;;5017792;28;20068;-68
2023/03/22 00:15:29;;;;;;;61.75;25.52;;;9.30;99.90;;;;;;5016966;28;20049;-68
2023/03/22 00:17:58;;;;;;;55.42;24.50;;;9.30;99.90;;;;;;5017184;28;20057;-68
2023/03/22 00:20:32;;;;;;;54.05;22.85;;;9.30;99.90;;;;;;5038726;22;20042;-65
2023/03/22 00:22:58;;;;;;;60.13;26.20;;;9.40;99.90;;;;;;4997905;28;20061;-65
2023/03/22 00:25:24;;;;;;;59.80;24.85;;;9.40;99.90;;;;;;4998409;28;20026;-65
2023/03/22 00:27:50;;;;;;;56.92;24.65;;;9.40;99.90;;;;;;4997042;28;20034;-65
2023/03/22 00:30:15;;;;;;;57.25;25.52;;;9.30;99.90;;;;;;4997528;28;20122;-65
2023/03/22 00:32:41;;;;;;;66.85;27.05;;;9.40;99.90;;;;;;4996903;28;20027;-64
2023/03/22 00:35:08;;;;;;;51.47;21.50;;;9.30;99.90;;;;;;4997713;28;20023;-65
2023/03/22 00:37:37;;;;;;;53.22;22.10;;;9.20;99.90;;;;;;4997766;28;20022;-68
2023/03/22 00:40:11;;;;;;;59.10;22.67;;;9.10;99.90;;;;;;4997266;28;20096;-64
2023/03/22 00:42:38;;;;;;;64.18;23.33;;;9.10;99.90;;;;;;4995995;28;20056;-65
2023/03/22 00:45:05;;;;;;;57.50;23.27;;;9.00;99.90;;;;;;4997839;28;20026;-66
2023/03/22 00:47:31;;;;;;;71.93;27.63;;;8.90;99.90;;;;;;4997626;28;20034;-66
2023/03/22 00:49:57;;;;;;;113.93;32.60;;;8.90;99.90;;;;;;4997215;28;20028;-68
2023/03/22 00:52:22;;;;;;;74.85;26.70;;;8.80;99.90;;;;;;4996831;28;20054;-65
2023/03/22 00:54:48;;;;;;;94.10;28.30;;;8.80;99.90;;;;;;4997925;28;20022;-68
2023/03/22 00:57:14;;;;;;;111.20;27.27;;;8.80;99.90;;;;;;4997642;28;20029;-65
2023/03/22 00:59:41;;;;;;;80.07;28.00;;;8.80;99.90;;;;;;4996936;28;20018;-65
2023/03/22 01:02:08;;;;;;;96.07;28.05;;;8.80;99.90;;;;;;4997480;28;20069;-65
2023/03/22 01:04:34;;;;;;;106.43;28.52;;;8.90;99.90;;;;;;4997530;28;20061;-65
2023/03/22 01:07:02;;;;;;;74.80;25.08;;;8.90;99.90;;;;;;4997868;28;20074;-65
2023/03/22 01:09:29;;;;;;;53.47;23.90;;;8.90;99.90;;;;;;4997593;28;20026;-67
2023/03/22 01:11:56;;;;;;;67.80;24.35;;;9.00;99.90;;;;;;4996430;28;20161;-67
2023/03/22 01:14:24;;;;;;;74.40;25.08;;;9.10;99.90;;;;;;4997496;28;20029;-67
2023/03/22 01:16:53;;;;;;;75.45;26.02;;;9.00;99.90;;;;;;4996658;28;20109;-67
2023/03/22 01:19:19;;;;;;;65.78;26.63;;;8.90;99.90;;;;;;4997681;28;20042;-66
2023/03/22 01:21:45;;;;;;;97.57;25.90;;;8.90;99.90;;;;;;4996854;28;20034;-66
2023/03/22 01:24:10;;;;;;;56.60;24.55;;;8.70;99.90;;;;;;4996447;28;20038;-67
2023/03/22 01:26:37;;;;;;;62.65;21.27;;;8.70;99.90;;;;;;4997411;28;20026;-67
2023/03/22 01:29:04;;;;;;;56.38;23.48;;;8.70;99.90;;;;;;4996558;28;20026;-65
2023/03/22 01:31:29;;;;;;;116.68;26.95;;;8.80;99.90;;;;;;4996349;28;20088;-65
2023/03/22 01:33:55;;;;;;;61.97;24.88;;;8.70;99.90;;;;;;4996688;28;20030;-65
2023/03/22 01:36:20;;;;;;;74.53;22.23;;;8.70;99.90;;;;;;4997109;28;20023;-66
2023/03/22 01:38:46;;;;;;;70.75;22.35;;;8.60;99.90;;;;;;4996324;28;20026;-66
2023/03/22 01:41:11;;;;;;;58.97;23.02;;;8.50;99.90;;;;;;4996417;28;20030;-67
2023/03/22 01:43:37;;;;;;;70.70;23.05;;;8.50;99.90;;;;;;4996254;28;20035;-66
2023/03/22 01:46:03;;;;;;;58.92;23.08;;;8.50;99.90;;;;;;4997467;28;20027;-66
2023/03/22 01:48:33;;;;;;;67.28;23.70;;;8.50;99.90;;;;;;4996368;28;20030;-66
2023/03/22 01:51:21;;;;;;;67.20;24.27;;;8.60;99.90;;;;;;4996097;28;20042;-67
2023/03/22 01:53:57;;;;;;;59.53;22.73;;;8.70;99.90;;;;;;4999350;28;20046;-66
2023/03/22 01:56:25;;;;;;;54.78;21.35;;;8.60;99.90;;;;;;4999802;28;20023;-67
2023/03/22 01:58:53;;;;;;;70.53;22.92;;;8.60;99.90;;;;;;4999811;28;20045;-67
2023/03/22 02:01:19;;;;;;;56.42;22.45;;;8.60;99.90;;;;;;4999812;28;20090;-67
2023/03/22 02:04:02;;;;;;;68.75;21.65;;;8.40;99.90;;;;;;5000508;28;20034;-67
2023/03/22 02:06:28;;;;;;;54.20;20.98;;;8.40;99.90;;;;;;5000942;28;20076;-66
2023/03/22 02:08:57;;;;;;;65.03;22.05;;;8.40;99.90;;;;;;4999637;28;20076;-67
2023/03/22 02:11:37;;;;;;;56.83;22.63;;;8.50;99.90;;;;;;4999399;28;20022;-66
2023/03/22 02:14:24;;;;;;;77.95;23.48;;;8.50;99.90;;;;;;5000812;28;20018;-66
2023/03/22 02:17:15;;;;;;;109.60;28.23;;;8.70;99.90;;;;;;4999419;28;20019;-66
2023/03/22 02:20:09;;;;;;;152.75;31.23;;;8.60;99.90;;;;;;5000230;28;20027;-67
2023/03/22 02:22:44;;;;;;;157.15;32.22;;;8.40;99.90;;;;;;5000493;28;20038;-67
2023/03/22 02:25:55;;;;;;;130.68;29.90;;;8.30;99.90;;;;;;4999433;28;20030;-67
2023/03/22 02:28:47;;;;;;;64.35;23.63;;;8.40;99.90;;;;;;5000119;28;20026;-67
2023/03/22 02:31:40;;;;;;;119.65;28.50;;;8.40;99.90;;;;;;4999304;28;20036;-67
2023/03/22 02:34:30;;;;;;;125.28;26.83;;;8.40;99.90;;;;;;5000149;28;20034;-67
2023/03/22 02:37:52;;;;;;;84.03;26.13;;;8.40;99.90;;;;;;4999096;28;20022;-67
2023/03/22 02:40:26;;;;;;;;;;;8.40;99.90;;;;;;4962999;28;20023;-67
2023/03/22 02:42:56;;;;;;;62.58;22.52;;;8.50;99.90;;;;;;4979181;28;19906;-67
2023/03/22 02:45:42;;;;;;;68.47;22.77;;;8.60;99.90;;;;;;4963307;28;20078;-66
2023/03/22 02:48:35;;;;;;;69.07;24.58;;;8.60;99.90;;;;;;4978982;28;20030;-67
2023/03/22 02:51:11;;;;;;;61.13;23.00;;;8.80;99.90;;;;;;4962985;28;20045;-67
2023/03/22 02:53:40;;;;;;;92.68;24.83;;;8.70;99.90;;;;;;4978868;28;20022;-67
2023/03/22 02:56:32;;;;;;;62.85;22.50;;;8.60;99.90;;;;;;4962459;28;20050;-67
2023/03/22 02:59:02;;;;;;;82.13;25.08;;;8.60;99.90;;;;;;4963157;28;20106;-66
2023/03/22 03:01:39;;;;;;;135.73;27.73;;;8.50;99.90;;;;;;4962422;28;20146;-67
2023/03/22 03:04:11;;;;;;;78.20;24.88;;;8.30;99.90;;;;;;4962107;28;20039;-67
2023/03/22 03:06:45;;;;;;;171.02;29.38;;;8.30;99.90;;;;;;4962537;28;20050;-67
2023/03/22 03:09:16;;;;;;;168.40;32.45;;;8.20;99.90;;;;;;4978415;28;20066;-67
2023/03/22 03:11:44;;;;;;;105.80;27.10;;;8.10;99.90;;;;;;4997425;28;20043;-67
2023/03/22 03:14:23;;;;;;;127.93;25.88;;;8.10;99.90;;;;;;4998573;28;20027;-67
2023/03/22 03:17:16;;;;;;;159.40;28.52;;;8.10;99.90;;;;;;4998362;28;20116;-67
2023/03/22 03:20:08;;;;;;;102.95;26.23;;;8.00;99.90;;;;;;4998305;28;20026;-67
2023/03/22 03:22:39;;;;;;;81.35;24.00;;;7.90;99.90;;;;;;4999097;28;20125;-67
2023/03/22 03:25:08;;;;;;;53.63;22.45;;;8.00;99.90;;;;;;4999368;28;20101;-67
2023/03/22 03:27:42;;;;;;;73.22;22.88;;;8.10;99.90;;;;;;4999302;28;20042;-67
2023/03/22 03:30:18;;;;;;;66.68;22.70;;;8.20;99.90;;;;;;4998921;28;20042;-67
2023/03/22 03:32:51;;;;;;;176.65;28.63;;;8.20;99.90;;;;;;4998786;28;20038;-67
2023/03/22 03:35:21;;;;;;;144.25;27.83;;;8.10;99.90;;;;;;4998995;28;20042;-67
2023/03/22 03:38:10;;;;;;;171.18;30.02;;;7.90;99.90;;;;;;4997857;28;20061;-67
2023/03/22 03:41:00;;;;;;;88.90;25.58;;;7.90;99.90;;;;;;4997771;28;20023;-67
2023/03/22 03:43:26;;;;;;;142.40;27.33;;;8.00;99.90;;;;;;4991730;28;20038;-67
2023/03/22 03:45:53;;;;;;;172.80;28.13;;;8.00;99.90;;;;;;4998750;28;20029;-68
2023/03/22 03:48:22;;;;;;;107.95;26.00;;;8.10;99.90;;;;;;4998203;28;20033;-68
2023/03/22 03:50:51;;;;;;;66.28;21.38;;;8.00;99.90;;;;;;4997521;28;20022;-68
2023/03/22 03:53:16;;;;;;;85.20;24.38;;;8.00;99.90;;;;;;4998461;28;20021;-68
2023/03/22 03:55:42;;;;;;;59.17;20.83;;;8.00;99.90;;;;;;4997706;28;20023;-68
2023/03/22 03:58:08;;;;;;;51.30;18.85;;;8.10;99.90;;;;;;4998565;28;20026;-68
2023/03/22 04:00:34;;;;;;;82.25;20.50;;;8.20;99.90;;;;;;4998368;28;20029;-64
2023/03/22 04:03:00;;;;;;;103.75;23.25;;;8.20;99.90;;;;;;4997721;28;20030;-65
2023/03/22 04:05:26;;;;;;;56.45;19.08;;;8.20;99.90;;;;;;4998409;28;20035;-64
2023/03/22 04:07:51;;;;;;;137.55;24.75;;;8.30;99.90;;;;;;4998315;28;20034;-65
2023/03/22 04:10:17;;;;;;;90.95;20.85;;;8.00;99.90;;;;;;4998174;28;20026;-65
2023/03/22 04:12:42;;;;;;;121.03;22.38;;;7.80;99.90;;;;;;4998093;28;20030;-64
2023/03/22 04:15:09;;;;;;;111.18;24.00;;;7.90;99.90;;;;;;4998321;28;20034;-64
2023/03/22 04:17:35;;;;;;;168.60;24.88;;;8.00;99.90;;;;;;4997061;28;20022;-64
2023/03/22 04:20:01;;;;;;;77.82;23.02;;;7.70;99.90;;;;;;4998044;28;20026;-65
2023/03/22 04:22:27;;;;;;;107.03;22.35;;;7.60;99.90;;;;;;4998093;28;20022;-64
2023/03/22 04:24:52;;;;;;;94.78;21.85;;;7.60;99.90;;;;;;4997107;28;20034;-64
2023/03/22 04:27:20;;;;;;;123.20;24.45;;;7.60;99.90;;;;;;4997496;28;20053;-64
2023/03/22 04:29:49;;;;;;;70.50;19.27;;;7.60;99.90;;;;;;4997826;28;20027;-65
2023/03/22 04:32:21;;;;;;;64.95;17.95;;;7.60;99.90;;;;;;4997729;28;20029;-68
2023/03/22 04:34:47;;;;;;;67.28;18.45;;;7.50;99.90;;;;;;4998762;28;20022;-68
2023/03/22 04:37:13;;;;;;;73.15;16.83;;;7.40;99.90;;;;;;4997054;28;20025;-68
2023/03/22 04:39:39;;;;;;;63.90;17.05;;;7.40;99.90;;;;;;4997423;28;20049;-67
2023/03/22 04:42:05;;;;;;;30.02;15.48;;;7.40;99.90;;;;;;4997253;28;20026;-67
2023/03/22 04:44:30;;;;;;;40.85;16.25;;;7.40;99.90;;;;;;4996832;28;20062;-64
2023/03/22 04:46:56;;;;;;;27.75;15.27;;;7.40;99.90;;;;;;4996970;28;20026;-65
2023/03/22 04:49:22;;;;;;;33.63;16.27;;;7.40;99.90;;;;;;4997088;28;20033;-64
2023/03/22 04:51:47;;;;;;;28.10;14.18;;;7.50;99.90;;;;;;4997566;28;20139;-65
2023/03/22 04:54:13;;;;;;;82.68;18.02;;;7.50;99.90;;;;;;4996705;28;20023;-65
2023/03/22 04:56:39;;;;;;;51.35;15.55;;;7.50;99.90;;;;;;4996990;28;20118;-65
2023/03/22 04:59:04;;;;;;;35.33;13.93;;;7.50;99.90;;;;;;4997917;28;20145;-65
2023/03/22 05:01:31;;;;;;;24.92;13.02;;;7.50;99.90;;;;;;4996976;28;20019;-66
2023/03/22 05:03:56;;;;;;;31.25;13.88;;;7.60;99.90;;;;;;4997534;28;20049;-66
2023/03/22 05:06:22;;;;;;;27.45;14.00;;;7.60;99.90;;;;;;4996712;28;20113;-66
2023/03/22 05:08:47;;;;;;;23.58;12.88;;;7.60;99.90;;;;;;4996709;28;20113;-66
2023/03/22 05:11:15;;;;;;;23.00;13.05;;;7.50;99.90;;;;;;4996522;28;20085;-66
2023/03/22 05:13:41;;;;;;;38.97;17.27;;;7.50;99.90;;;;;;4996697;28;20050;-66
2023/03/22 05:16:08;;;;;;;32.55;16.30;;;7.60;99.90;;;;;;4996563;28;20046;-66
2023/03/22 05:18:36;;;;;;;40.80;16.65;;;7.70;99.90;;;;;;4997579;28;20094;-66
2023/03/22 05:21:05;;;;;;;43.40;16.98;;;7.80;99.90;;;;;;4996633;28;20113;-68
2023/03/22 05:23:31;;;;;;;38.75;14.20;;;7.90;99.90;;;;;;4996542;28;20109;-68
2023/03/22 05:25:57;;;;;;;57.47;15.77;;;7.60;99.90;;;;;;4996562;28;20065;-68
2023/03/22 05:28:26;;;;;;;46.88;15.20;;;7.50;99.90;;;;;;4998234;28;20065;-64
2023/03/22 05:30:51;;;;;;;44.15;15.68;;;7.30;99.90;;;;;;5000198;28;20029;-64
2023/03/22 05:33:23;;;;;;;87.15;19.27;;;7.30;99.90;;;;;;5000347;28;20022;-64
2023/03/22 05:35:49;;;;;;;111.95;20.20;;;7.40;99.90;;;;;;5001161;28;20054;-64
2023/03/22 05:38:15;;;;;;;73.22;18.63;;;7.50;99.90;;;;;;5001017;28;20109;-65
2023/03/22 05:40:41;;;;;;;77.30;19.13;;;7.50;99.90;;;;;;5000925;28;20056;-64
2023/03/22 05:43:07;;;;;;;103.55;23.10;;;7.50;99.90;;;;;;4999994;28;20023;-65
2023/03/22 05:45:35;;;;;;;76.10;20.77;;;7.50;99.90;;;;;;5001000;28;20036;-66
2023/03/22 05:48:01;;;;;;;54.42;17.35;;;7.50;99.90;;;;;;5000869;28;20022;-66
2023/03/22 05:50:27;;;;;;;70.60;19.58;;;7.60;99.90;;;;;;5000214;28;20030;-66
2023/03/22 05:52:53;;;;;;;80.35;17.65;;;7.60;99.90;;;;;;4999779;28;20033;-66
2023/03/22 05:55:18;;;;;;;42.13;17.10;;;7.70;99.90;;;;;;5000699;28;20097;-66
2023/03/22 05:57:45;;;;;;;29.67;13.45;;;7.90;99.90;;;;;;5000251;28;20023;-64
2023/03/22 06:00:14;;;;;;;43.90;14.02;;;8.00;99.90;;;;;;4999694;28;20028;-65
2023/03/22 06:02:42;;;;;;;51.17;14.25;;;8.10;99.90;;;;;;5000605;28;20023;-68
2023/03/22 06:05:10;;;;;;;63.20;15.10;;;8.00;99.90;;;;;;4999747;28;20117;-68
2023/03/22 06:07:36;;;;;;;61.50;15.02;;;8.00;99.90;;;;;;4999908;28;20026;-68
2023/03/22 06:10:02;;;;;;;68.93;14.90;;;7.90;99.90;;;;;;4999863;28;20027;-65
2023/03/22 06:12:28;;;;;;;68.60;16.38;;;7.80;99.90;;;;;;5000679;28;20023;-64
2023/03/22 06:14:54;;;;;;;62.22;14.75;;;7.80;99.90;;;;;;4999534;28;20029;-65
2023/03/22 06:17:20;;;;;;;37.53;13.27;;;7.80;99.90;;;;;;5000448;28;20029;-64
2023/03/22 06:19:46;;;;;;;55.70;14.95;;;7.90;99.90;;;;;;5000526;28;20101;-64
2023/03/22 06:22:12;;;;;;;45.83;16.63;;;7.90;99.90;;;;;;4999793;28;20042;-64
2023/03/22 06:24:41;;;;;;;61.63;15.27;;;7.90;99.90;;;;;;4999333;28;20121;-64
2023/03/22 06:27:07;;;;;;;36.22;14.75;;;8.00;99.90;;;;;;4999231;28;20110;-68
2023/03/22 06:29:32;;;;;;;46.50;16.40;;;8.00;99.90;;;;;;5000158;28;20058;-64
2023/03/22 06:31:58;;;;;;;29.63;14.15;;;8.00;99.90;;;;;;4999822;28;20121;-64
2023/03/22 06:34:25;;;;;;;53.90;14.88;;;8.00;99.90;;;;;;4999448;28;20029;-65
2023/03/22 06:36:52;;;;;;;48.10;14.93;;;8.00;99.90;;;;;;4999135;28;20073;-64
2023/03/22 06:39:18;;;;;;;60.15;15.38;;;7.90;99.90;;;;;;4998992;28;20022;-64
2023/03/22 06:41:43;;;;;;;44.72;15.90;;;7.90;99.90;;;;;;4999917;28;20038;-64
2023/03/22 06:44:09;;;;;;;31.92;13.60;;;7.80;99.90;;;;;;5000442;28;20061;-64
2023/03/22 06:46:34;;;;;;;75.25;15.43;;;7.80;99.90;;;;;;4999262;28;20022;-65
2023/03/22 06:49:00;;;;;;;85.75;18.23;;;7.90;99.90;;;;;;4999467;28;20026;-65
2023/03/22 06:51:25;;;;;;;271.48;33.15;;;7.60;99.90;;;;;;4999662;28;20034;-65
2023/03/22 06:53:51;;;;;;;82.82;20.05;;;7.30;99.90;;;;;;4999785;28;20023;-66
2023/03/22 06:56:16;;;;;;;156.40;23.25;;;7.00;99.90;;;;;;4998755;28;20117;-66
2023/03/22 06:58:42;;;;;;;107.60;22.23;;;7.00;99.90;;;;;;4999076;28;20023;-68
2023/03/22 07:01:07;;;;;;;117.55;21.85;;;7.10;99.90;;;;;;4998669;28;20023;-67
2023/03/22 07:03:33;;;;;;;98.10;20.63;;;7.20;99.90;;;;;;4999118;28;20026;-64
2023/03/22 07:06:03;;;;;;;72.95;19.13;;;7.10;99.90;;;;;;4999350;28;20035;-65
2023/03/22 07:08:29;;;;;;;40.40;17.40;;;7.30;99.90;;;;;;4998795;28;20037;-64
2023/03/22 07:10:54;;;;;;;35.47;16.23;;;7.30;99.90;;;;;;4998261;28;20125;-64
2023/03/22 07:13:20;;;;;;;33.63;14.77;;;7.60;99.90;;;;;;4998419;28;20089;-68
2023/03/22 07:15:45;;;;;;;33.63;14.75;;;7.70;99.90;;;;;;4998799;28;20133;-68
2023/03/22 07:18:11;;;;;;;32.92;15.75;;;7.90;99.90;;;;;;4999132;28;20156;-68
2023/03/22 07:20:39;;;;;;;36.05;14.90;;;7.90;99.90;;;;;;4998280;28;20094;-68
2023/03/22 07:23:05;;;;;;;27.35;13.88;;;7.90;99.90;;;;;;4998293;28;20034;-68
2023/03/22 07:25:30;;;;;;;31.90;16.40;;;7.80;99.90;;;;;;4999277;28;20030;-67
2023/03/22 07:27:56;;;;;;;27.55;15.00;;;7.80;99.90;;;;;;4999148;28;20029;-67
2023/03/22 07:30:21;;;;;;;29.60;14.65;;;7.80;99.90;;;;;;4998282;28;20034;-67
2023/03/22 07:32:47;;;;;;;32.90;16.17;;;8.00;99.90;;;;;;4998283;28;20026;-67
2023/03/22 07:35:12;;;;;;;32.47;15.73;;;8.10;99.90;;;;;;4999046;28;20029;-65
2023/03/22 07:37:38;;;;;;;28.75;14.38;;;8.30;99.90;;;;;;4997923;28;20031;-64
2023/03/22 07:40:04;;;;;;;32.13;15.70;;;8.20;99.90;;;;;;4997741;28;20165;-66
2023/03/22 07:42:30;;;;;;;30.15;14.93;;;8.30;99.90;;;;;;4998764;28;20026;-68
2023/03/22 07:44:56;;;;;;;29.60;15.63;;;8.40;99.90;;;;;;4998741;28;20023;-66
2023/03/22 07:47:22;;;;;;;28.45;15.35;;;8.30;99.90;;;;;;4998307;28;20026;-64
2023/03/22 07:49:48;;;;;;;31.60;15.27;;;8.40;99.90;;;;;;4998754;28;20056;-64
2023/03/22 07:52:13;;;;;;;26.77;14.18;;;8.40;99.90;;;;;;4997988;28;20058;-66
2023/03/22 07:54:39;;;;;;;47.72;17.23;;;8.60;99.90;;;;;;4997847;28;20121;-68
2023/03/22 07:57:05;;;;;;;28.00;14.38;;;8.80;99.90;;;;;;4997909;28;20030;-68
2023/03/22 07:59:31;;;;;;;27.92;15.00;;;8.90;99.90;;;;;;4997801;28;20014;-67
2023/03/22 08:01:57;;;;;;;27.55;14.48;;;9.10;99.90;;;;;;4998001;28;20030;-66
2023/03/22 08:04:22;;;;;;;29.58;14.73;;;9.20;99.90;;;;;;4997575;28;20033;-67
2023/03/22 08:06:48;;;;;;;23.83;14.05;;;9.40;99.90;;;;;;4997532;28;20031;-67
2023/03/22 08:09:14;;;;;;;26.23;13.55;;;9.60;99.90;;;;;;4997763;28;20026;-67
2023/03/22 08:11:40;;;;;;;27.92;14.07;;;9.80;99.90;;;;;;4998504;28;20034;-67
2023/03/22 08:14:05;;;;;;;29.48;13.57;;;10.10;99.90;;;;;;4998106;28;20068;-68
2023/03/22 08:16:31;;;;;;;23.88;11.95;;;10.30;99.90;;;;;;4998488;28;20018;-68
2023/03/22 08:18:57;;;;;;;16.60;10.10;;;10.40;99.90;;;;;;4997339;28;20031;-68
2023/03/22 08:21:23;;;;;;;19.63;10.18;;;10.60;99.90;;;;;;4998045;28;20039;-68
2023/03/22 08:23:48;;;;;;;20.60;11.00;;;10.70;99.90;;;;;;4997353;28;20048;-67
2023/03/22 08:26:14;;;;;;;19.33;9.63;;;10.90;99.90;;;;;;4997370;28;20041;-67
2023/03/22 08:28:41;;;;;;;23.63;9.85;;;11.10;99.90;;;;;;4997177;28;20033;-68
2023/03/22 08:31:12;;;;;;;19.33;9.65;;;11.30;99.90;;;;;;4997745;28;20023;-68
2023/03/22 08:33:38;;;;;;;15.63;8.45;;;11.60;99.90;;;;;;4997008;28;20077;-68
2023/03/22 08:36:06;;;;;;;13.25;6.90;;;11.90;99.90;;;;;;4997066;28;20026;-69
2023/03/22 08:38:31;;;;;;;8.15;5.80;;;12.10;99.90;;;;;;4998370;28;20030;-68
2023/03/22 08:40:57;;;;;;;8.90;6.03;;;12.20;99.90;;;;;;4998263;28;20080;-68
2023/03/22 08:43:22;;;;;;;8.40;4.30;;;12.30;99.90;;;;;;4997352;28;20080;-68
2023/03/22 08:45:48;;;;;;;9.25;3.78;;;12.40;99.90;;;;;;4998013;28;20033;-68
2023/03/22 08:48:13;;;;;;;7.35;4.00;;;12.40;99.90;;;;;;4997861;28;20045;-68
2023/03/22 08:50:39;;;;;;;5.30;2.90;;;12.40;99.90;;;;;;4997159;28;20090;-67
2023/03/22 08:53:04;;;;;;;9.07;3.35;;;12.30;99.90;;;;;;4997046;28;20030;-67
2023/03/22 08:55:30;;;;;;;5.50;3.13;;;12.40;99.90;;;;;;4997061;28;20029;-67
2023/03/22 08:57:57;;;;;;;8.68;3.28;;;12.40;99.90;;;;;;4997196;28;20029;-67
2023/03/22 09:00:23;;;;;;;6.15;2.67;;;12.50;99.90;;;;;;4995749;28;20032;-67
2023/03/22 09:02:49;;;;;;;5.65;2.58;;;12.70;99.90;;;;;;4996199;28;20134;-67
2023/03/22 09:05:15;;;;;;;7.85;2.58;;;12.80;99.90;;;;;;4999956;28;20112;-67
2023/03/22 09:07:40;;;;;;;7.10;2.58;;;12.90;99.90;;;;;;5000648;28;20077;-68
2023/03/22 09:10:07;;;;;;;6.65;2.30;;;13.00;99.90;;;;;;5000803;28;20026;-68
2023/03/22 09:12:33;;;;;;;4.82;2.03;;;13.10;99.90;;;;;;4999326;28;20022;-68
2023/03/22 09:14:58;;;;;;;8.60;2.70;;;13.10;99.90;;;;;;5001224;28;20025;-68
2023/03/22 09:17:24;;;;;;;3.47;2.17;;;13.10;99.90;;;;;;5001435;28;20076;-67
2023/03/22 09:19:50;;;;;;;6.63;1.98;;;13.10;99.90;;;;;;5001669;28;20068;-67
2023/03/22 09:22:15;;;;;;;5.32;1.73;;;13.10;99.90;;;;;;5001193;28;20045;-67
2023/03/22 09:24:41;;;;;;;4.65;1.80;;;13.10;99.90;;;;;;5000583;28;20034;-66
2023/03/22 09:27:07;;;;;;;7.85;1.88;;;13.10;99.90;;;;;;5000585;28;20102;-67
2023/03/22 09:29:32;;;;;;;4.15;1.67;;;13.10;99.90;;;;;;5001284;28;20038;-67
2023/03/22 09:31:58;;;;;;;4.68;1.85;;;13.20;99.90;;;;;;5000793;28;20049;-67
2023/03/22 09:34:23;;;;;;;4.40;1.77;;;13.20;99.90;;;;;;5001168;28;20018;-67
2023/03/22 09:36:51;;;;;;;6.63;1.80;;;13.30;99.90;;;;;;5001127;28;20030;-67
2023/03/22 09:39:17;;;;;;;3.67;1.60;;;13.30;99.90;;;;;;5000507;28;20057;-67
2023/03/22 09:41:53;;;;;;;5.80;1.58;;;13.30;99.90;;;;;;5000947;28;20022;-67
2023/03/22 09:44:28;;;;;;;2.40;1.20;;;13.30;99.90;;;;;;5000220;28;20022;-67
2023/03/22 09:46:58;;;;;;;3.53;1.02;;;13.40;99.90;;;;;;5001308;28;20086;-67
2023/03/22 09:49:29;;;;;;;1.03;0.80;;;13.50;99.90;;;;;;5001199;28;20088;-67
2023/03/22 09:51:55;;;;;;;2.08;0.90;;;13.40;99.90;;;;;;4999986;28;20027;-67
2023/03/22 09:54:36;;;;;;;1.73;0.80;;;13.40;99.90;;;;;;4999897;28;20018;-67
2023/03/22 09:57:27;;;;;;;5.10;1.27;;;13.40;99.90;;;;;;5000067;28;20026;-67
2023/03/22 09:59:59;;;;;;;3.22;1.13;;;13.50;99.90;;;;;;4999889;28;20033;-67
2023/03/22 10:02:54;;;;;;;1.98;1.33;;;13.60;99.90;;;;;;5000146;28;20030;-67
2023/03/22 10:05:28;;;;;;;2.25;1.25;;;13.60;99.90;;;;;;4989299;28;20034;-67
2023/03/22 10:08:11;;;;;;;2.00;1.42;;;13.60;99.90;;;;;;5000862;28;20026;-67
2023/03/22 10:10:40;;;;;;;2.65;1.30;;;13.60;99.90;;;;;;4999648;28;20041;-67
2023/03/22 10:13:27;;;;;;;1.40;0.93;;;13.60;99.90;;;;;;5000069;28;20030;-67
2023/03/22 10:15:56;;;;;;;3.95;1.55;;;13.70;99.90;;;;;;4999710;28;20018;-67
2023/03/22 10:18:28;;;;;;;5.57;1.30;;;13.70;99.90;;;;;;5000332;28;20026;-67
2023/03/22 10:21:04;;;;;;;2.33;1.25;;;13.70;99.90;;;;;;4999454;28;20113;-67
2023/03/22 10:23:38;;;;;;;6.43;1.35;;;13.70;99.90;;;;;;5000323;28;20034;-67
2023/03/22 10:26:06;;;;;;;3.95;1.35;;;13.70;99.90;;;;;;4999455;28;20086;-67
2023/03/22 10:28:42;;;;;;;3.95;1.30;;;13.60;99.90;;;;;;4999381;28;20027;-67
2023/03/22 10:31:17;;;;;;;2.53;1.45;;;13.70;99.90;;;;;;4999975;28;20018;-67
2023/03/22 10:34:01;;;;;;;4.43;1.63;;;13.80;99.90;;;;;;4999253;28;20025;-67
2023/03/22 10:36:33;;;;;;;4.97;2.00;;;13.90;99.90;;;;;;4999158;28;20026;-67
2023/03/22 10:39:11;;;;;;;4.93;1.67;;;14.10;99.90;;;;;;4999090;28;20026;-67
2023/03/22 10:41:38;;;;;;;3.72;1.60;;;14.30;99.90;;;;;;4999138;28;20026;-67
2023/03/22 10:44:04;;;;;;;2.75;1.60;;;14.30;99.90;;;;;;4999024;28;20061;-67
2023/03/22 10:46:37;;;;;;;3.80;1.73;;;14.30;99.90;;;;;;4999958;28;20030;-67
2023/03/22 10:49:04;;;;;;;1.80;1.38;;;14.50;99.90;;;;;;4999795;28;20026;-67
2023/03/22 10:51:39;;;;;;;4.97;1.80;;;14.70;99.90;;;;;;4998945;28;20035;-67
2023/03/22 10:54:04;;;;;;;2.83;1.42;;;14.90;99.90;;;;;;4999448;28;20046;-67
2023/03/22 10:56:30;;;;;;;2.92;1.63;;;15.10;99.90;;;;;;4999123;28;20025;-67
2023/03/22 10:58:56;;;;;;;2.45;1.33;;;15.10;99.90;;;;;;4998783;28;20026;-67
2023/03/22 11:01:31;;;;;;;4.95;1.98;;;15.10;99.90;;;;;;4998855;28;20033;-67
2023/03/22 11:04:04;;;;;;;1.95;1.20;;;15.00;99.90;;;;;;4998765;28;20026;-67
2023/03/22 11:06:34;;;;;;;2.78;1.13;;;15.10;99.90;;;;;;4999547;28;20105;-67
2023/03/22 11:09:10;;;;;;;6.20;1.27;;;15.30;99.90;;;;;;4999452;28;20048;-67
2023/03/22 11:11:46;;;;;;;3.90;1.20;;;15.50;99.90;;;;;;4998332;28;20026;-67
2023/03/22 11:14:26;;;;;;;3.00;1.05;;;15.90;99.90;;;;;;4999125;28;20026;-67
2023/03/22 11:17:09;;;;;;;3.40;1.33;;;16.30;99.90;;;;;;4999898;28;20059;-67
2023/03/22 11:19:37;;;;;;;5.28;1.20;;;16.60;99.90;;;;;;4998392;28;20108;-67
2023/03/22 11:22:18;;;;;;;4.18;1.20;;;16.60;99.90;;;;;;4998577;28;20038;-67
2023/03/22 11:24:46;;;;;;;1.63;0.93;;;16.90;99.90;;;;;;4998190;28;20031;-67
2023/03/22 11:27:23;;;;;;;3.75;0.90;;;17.40;99.90;;;;;;4998531;28;20104;-67
2023/03/22 11:29:51;;;;;;;2.38;1.08;;;17.70;99.90;;;;;;4998712;28;20109;-67
2023/03/22 11:32:28;;;;;;;3.30;1.35;;;17.90;99.90;;;;;;4999061;28;20019;-67
2023/03/22 11:35:25;;;;;;;2.25;1.17;;;17.80;99.90;;;;;;4998009;28;20034;-67
2023/03/22 11:37:53;;;;;;;3.10;1.02;;;17.70;99.90;;;;;;4998960;28;20015;-67
2023/03/22 11:40:25;;;;;;;2.75;1.08;;;18.10;99.90;;;;;;4998925;28;20026;-67
2023/03/22 11:43:21;;;;;;;1.73;0.98;;;18.00;99.90;;;;;;4997869;28;20026;-67
2023/03/22 11:45:52;;;;;;;2.22;1.02;;;17.60;99.90;;;;;;4997138;28;20070;-67
2023/03/22 11:48:21;;;;;;;4.68;1.30;;;17.40;99.90;;;;;;4997968;28;20030;-67
2023/03/22 11:50:47;;;;;;;1.60;0.90;;;17.40;99.90;;;;;;4997825;28;20030;-67
2023/03/22 11:53:18;;;;;;;2.13;0.82;;;17.60;99.90;;;;;;4997616;28;20026;-67
2023/03/22 11:55:46;;;;;;;1.52;0.82;;;17.30;99.90;;;;;;4998950;28;20101;-67
2023/03/22 11:58:38;;;;;;;7.70;1.30;;;17.20;99.90;;;;;;4998006;28;20034;-67
2023/03/22 12:01:05;;;;;;;3.85;0.88;;;16.90;99.90;;;;;;4997936;28;20062;-67
2023/03/22 12:03:38;;;;;;;3.83;1.10;;;16.90;99.90;;;;;;4997608;28;20037;-67
2023/03/22 12:06:16;;;;;;;2.13;0.82;;;17.20;99.90;;;;;;4997523;28;20027;-67
2023/03/22 12:08:46;;;;;;;3.85;0.90;;;17.80;99.90;;;;;;4997793;28;20084;-67
2023/03/22 12:11:44;;;;;;;5.60;1.58;;;18.40;99.90;;;;;;4998198;28;20027;-67
2023/03/22 12:14:16;;;;;;;1.38;0.70;;;18.50;99.90;;;;;;4996767;28;20031;-67
2023/03/22 12:16:51;;;;;;;1.10;0.80;;;18.10;99.90;;;;;;4998396;28;20053;-67
2023/03/22 12:19:24;;;;;;;2.40;1.23;;;17.60;99.90;;;;;;4998147;28;20019;-67
2023/03/22 12:21:50;;;;;;;5.05;1.20;;;17.30;99.90;;;;;;5021204;23;20060;-66
2023/03/22 12:24:29;;;;;;;1.67;0.90;;;17.20;99.90;;;;;;4997517;28;20030;-64
2023/03/22 12:27:05;;;;;;;2.35;0.70;;;17.50;99.90;;;;;;4998119;28;20026;-64
2023/03/22 12:29:31;;;;;;;2.78;1.08;;;18.10;99.90;;;;;;4998083;28;20125;-64
2023/03/22 12:32:05;;;;;;;1.30;0.77;;;18.60;99.90;;;;;;5010128;28;20081;-64
2023/03/22 12:34:39;;;;;;;2.88;0.80;;;19.00;99.90;;;;;;5033327;28;20025;-64
2023/03/22 12:37:10;;;;;;;2.92;0.75;;;19.50;99.90;;;;;;5034122;28;20022;-65
2023/03/22 12:39:45;;;;;;;1.90;0.65;;;19.80;99.90;;;;;;5033313;28;20021;-64
2023/03/22 12:42:26;;;;;;;2.72;1.05;;;20.30;99.90;;;;;;5033708;28;20030;-63
2023/03/22 12:45:00;;;;;;;1.10;0.70;;;20.70;99.90;;;;;;5033561;28;20029;-64
2023/03/22 12:47:37;;;;;;;2.90;0.90;;;20.70;99.90;;;;;;5016573;28;20034;-64
2023/03/22 12:50:21;;;;;;;3.53;0.75;;;20.50;99.90;;;;;;5016602;28;20022;-64
2023/03/22 12:52:49;;;;;;;1.88;0.70;;;20.50;99.90;;;;;;5033677;28;20026;-64